createdAt,value
2022-11-16T00:00:21.390Z,0.00
2022-11-16T00:01:21.411Z,0.00
2022-11-16T00:02:21.503Z,0.00
2022-11-16T00:03:21.374Z,0.00
2022-11-16T00:04:21.675Z,0.00
2022-11-16T00:05:27.040Z,0.00
2022-11-16T00:06:22.361Z,0.00
2022-11-16T00:07:21.390Z,0.00
2022-11-16T00:08:21.308Z,0.00
2022-11-16T00:09:21.349Z,0.00
2022-11-16T00:10:21.328Z,0.00
2022-11-16T00:11:21.510Z,0.00
2022-11-16T00:12:21.269Z,0.00
2022-11-16T00:13:21.271Z,0.00
2022-11-16T00:14:21.300Z,0.00
2022-11-16T00:15:21.250Z,0.00
2022-11-16T00:16:21.222Z,0.00
2022-11-16T00:17:21.210Z,0.00
2022-11-16T00:18:21.204Z,0.00
2022-11-16T00:19:21.242Z,0.00
2022-11-16T00:20:21.169Z,0.00
2022-11-16T00:21:21.175Z,0.00
2022-11-16T00:22:21.172Z,0.00
2022-11-16T00:23:21.153Z,0.00
2022-11-16T00:24:21.172Z,0.00
2022-11-16T00:25:21.116Z,0.00
2022-11-16T00:26:21.123Z,0.00
2022-11-16T00:27:21.092Z,0.00
2022-11-16T00:28:21.085Z,0.00
2022-11-16T00:29:21.081Z,0.00
2022-11-16T00:30:21.161Z,0.00
2022-11-16T00:31:21.072Z,0.00
2022-11-16T00:32:21.039Z,0.00
2022-11-16T00:33:21.033Z,0.00
2022-11-16T00:34:21.015Z,0.00
2022-11-16T00:35:21.121Z,0.00
2022-11-16T00:36:20.996Z,0.00
2022-11-16T00:37:20.973Z,0.00
2022-11-16T00:38:20.997Z,0.00
2022-11-16T00:39:20.999Z,0.00
2022-11-16T00:40:24.934Z,0.00
2022-11-16T00:41:20.945Z,0.00
2022-11-16T00:42:20.945Z,0.00
2022-11-16T00:43:20.913Z,0.00
2022-11-16T00:44:20.940Z,0.00
2022-11-16T00:45:20.889Z,0.00
2022-11-16T00:46:20.869Z,0.00
2022-11-16T00:47:20.858Z,0.00
2022-11-16T00:48:20.867Z,0.00
2022-11-16T00:49:21.578Z,0.00
2022-11-16T00:50:20.835Z,0.00
2022-11-16T00:51:20.816Z,0.00
2022-11-16T00:52:20.803Z,0.00
2022-11-16T00:53:20.798Z,0.00
2022-11-16T00:54:20.814Z,0.00
2022-11-16T00:55:20.788Z,0.00
2022-11-16T00:56:20.767Z,0.00
2022-11-16T00:57:20.757Z,0.00
2022-11-16T00:58:20.726Z,0.00
2022-11-16T00:59:20.730Z,0.00
2022-11-16T01:00:32.230Z,0.00
2022-11-16T01:01:20.788Z,0.00
2022-11-16T01:02:20.695Z,0.00
2022-11-16T01:03:20.681Z,0.00
2022-11-16T01:04:20.677Z,0.00
2022-11-16T01:05:20.657Z,0.00
2022-11-16T01:06:20.638Z,0.00
2022-11-16T01:07:20.711Z,0.00
2022-11-16T01:08:20.621Z,0.00
2022-11-16T01:09:20.598Z,0.00
2022-11-16T01:10:20.658Z,0.00
2022-11-16T01:11:20.583Z,0.00
2022-11-16T01:12:20.590Z,0.00
2022-11-16T01:13:20.576Z,0.00
2022-11-16T01:14:20.549Z,0.00
2022-11-16T01:15:20.532Z,0.00
2022-11-16T01:16:20.593Z,0.00
2022-11-16T01:17:20.527Z,0.00
2022-11-16T01:18:20.498Z,0.00
2022-11-16T01:19:20.526Z,0.00
2022-11-16T01:20:20.480Z,0.00
2022-11-16T01:21:20.469Z,0.00
2022-11-16T01:22:20.472Z,0.00
2022-11-16T01:23:20.483Z,0.00
2022-11-16T01:24:20.468Z,0.00
2022-11-16T01:25:20.412Z,0.00
2022-11-16T01:26:20.437Z,0.00
2022-11-16T01:27:20.410Z,0.00
2022-11-16T01:28:20.389Z,0.00
2022-11-16T01:29:20.401Z,0.00
2022-11-16T01:30:20.392Z,0.00
2022-11-16T01:31:20.352Z,0.00
2022-11-16T01:32:20.354Z,0.00
2022-11-16T01:33:20.360Z,0.00
2022-11-16T01:34:20.343Z,0.00
2022-11-16T01:35:20.325Z,0.00
2022-11-16T01:36:20.291Z,0.00
2022-11-16T01:37:20.299Z,0.00
2022-11-16T01:38:20.262Z,0.00
2022-11-16T01:39:20.328Z,0.00
2022-11-16T01:40:20.253Z,0.00
2022-11-16T01:41:20.254Z,0.00
2022-11-16T01:42:20.277Z,0.00
2022-11-16T01:43:20.227Z,0.00
2022-11-16T01:44:20.215Z,0.00
2022-11-16T01:45:20.194Z,0.00
2022-11-16T01:46:20.187Z,0.00
2022-11-16T01:47:20.179Z,0.00
2022-11-16T01:48:20.210Z,0.00
2022-11-16T01:49:20.153Z,0.00
2022-11-16T01:50:20.164Z,0.00
2022-11-16T01:51:20.124Z,0.00
2022-11-16T01:52:20.104Z,0.00
2022-11-16T01:53:20.115Z,0.00
2022-11-16T01:54:20.101Z,0.00
2022-11-16T01:55:20.074Z,0.00
2022-11-16T01:56:20.094Z,0.00
2022-11-16T01:57:20.055Z,0.00
2022-11-16T01:58:20.053Z,0.00
2022-11-16T01:59:20.045Z,0.00
2022-11-16T02:00:20.039Z,0.00
2022-11-16T02:01:20.083Z,0.00
2022-11-16T02:02:19.996Z,0.00
2022-11-16T02:03:20.015Z,0.00
2022-11-16T02:04:19.984Z,0.00
2022-11-16T02:05:20.010Z,0.00
2022-11-16T02:06:19.961Z,0.00
2022-11-16T02:07:19.987Z,0.00
2022-11-16T02:08:19.963Z,0.00
2022-11-16T02:09:19.919Z,0.00
2022-11-16T02:10:19.901Z,0.00
2022-11-16T02:11:19.884Z,0.00
2022-11-16T02:12:19.887Z,0.00
2022-11-16T02:13:19.877Z,0.00
2022-11-16T02:14:19.876Z,0.00
2022-11-16T02:15:19.837Z,0.00
2022-11-16T02:16:19.826Z,0.00
2022-11-16T02:17:19.819Z,0.00
2022-11-16T02:18:19.805Z,0.00
2022-11-16T02:19:19.816Z,0.00
2022-11-16T02:20:19.789Z,0.00
2022-11-16T02:21:19.767Z,0.00
2022-11-16T02:22:19.798Z,0.00
2022-11-16T02:23:19.747Z,0.00
2022-11-16T02:24:19.771Z,0.00
2022-11-16T02:25:19.724Z,0.00
2022-11-16T02:26:19.717Z,0.00
2022-11-16T02:27:19.719Z,0.00
2022-11-16T02:28:20.007Z,0.00
2022-11-16T02:29:19.979Z,0.00
2022-11-16T02:30:19.668Z,0.00
2022-11-16T02:31:19.683Z,0.00
2022-11-16T02:32:19.650Z,0.00
2022-11-16T02:33:19.643Z,0.00
2022-11-16T02:34:19.650Z,0.00
2022-11-16T02:35:19.608Z,0.00
2022-11-16T02:36:19.608Z,0.00
2022-11-16T02:37:19.598Z,0.00
2022-11-16T02:38:19.585Z,0.00
2022-11-16T02:39:19.587Z,0.00
2022-11-16T02:40:19.558Z,0.00
2022-11-16T02:41:19.542Z,0.00
2022-11-16T02:42:19.546Z,0.00
2022-11-16T02:43:19.533Z,0.00
2022-11-16T02:44:19.548Z,0.00
2022-11-16T02:45:19.499Z,0.00
2022-11-16T02:46:19.520Z,0.00
2022-11-16T02:47:19.470Z,0.00
2022-11-16T02:48:19.479Z,0.00
2022-11-16T02:49:19.499Z,0.00
2022-11-16T02:50:19.443Z,0.00
2022-11-16T02:51:19.439Z,0.00
2022-11-16T02:52:19.537Z,0.00
2022-11-16T02:53:19.431Z,0.00
2022-11-16T02:54:19.411Z,0.00
2022-11-16T02:55:19.419Z,0.00
2022-11-16T02:56:19.382Z,0.00
2022-11-16T02:57:19.405Z,0.00
2022-11-16T02:58:19.385Z,0.00
2022-11-16T02:59:19.343Z,0.00
2022-11-16T03:00:19.339Z,0.00
2022-11-16T03:01:19.357Z,0.00
2022-11-16T03:02:19.312Z,0.00
2022-11-16T03:03:19.303Z,0.00
2022-11-16T03:04:19.302Z,0.00
2022-11-16T03:05:19.282Z,0.00
2022-11-16T03:06:19.279Z,0.00
2022-11-16T03:07:19.296Z,0.00
2022-11-16T03:08:19.255Z,0.00
2022-11-16T03:09:19.251Z,0.00
2022-11-16T03:10:19.205Z,0.00
2022-11-16T03:11:19.226Z,0.00
2022-11-16T03:12:19.205Z,0.00
2022-11-16T03:13:19.193Z,0.00
2022-11-16T03:14:19.204Z,0.00
2022-11-16T03:15:19.175Z,0.00
2022-11-16T03:16:19.151Z,0.00
2022-11-16T03:17:19.160Z,0.00
2022-11-16T03:18:19.116Z,0.00
2022-11-16T03:19:19.135Z,0.00
2022-11-16T03:20:19.103Z,0.00
2022-11-16T03:21:19.084Z,0.00
2022-11-16T03:22:19.075Z,0.00
2022-11-16T03:23:19.085Z,0.00
2022-11-16T03:24:19.065Z,0.00
2022-11-16T03:25:19.048Z,0.00
2022-11-16T03:26:19.034Z,0.00
2022-11-16T03:27:19.041Z,0.00
2022-11-16T03:28:19.006Z,0.00
2022-11-16T03:29:19.269Z,0.00
2022-11-16T03:30:23.206Z,0.00
2022-11-16T03:31:18.990Z,0.00
2022-11-16T03:32:18.973Z,0.00
2022-11-16T03:33:18.975Z,0.00
2022-11-16T03:34:18.989Z,0.00
2022-11-16T03:35:18.957Z,0.00
2022-11-16T03:36:18.926Z,0.00
2022-11-16T03:37:18.907Z,0.00
2022-11-16T03:38:18.923Z,0.00
2022-11-16T03:39:18.898Z,0.00
2022-11-16T03:40:18.879Z,0.00
2022-11-16T03:41:18.871Z,0.00
2022-11-16T03:42:18.845Z,0.00
2022-11-16T03:43:18.857Z,0.00
2022-11-16T03:44:18.854Z,0.00
2022-11-16T03:45:18.817Z,0.00
2022-11-16T03:46:18.806Z,0.00
2022-11-16T03:47:18.790Z,0.00
2022-11-16T03:48:18.801Z,0.00
2022-11-16T03:49:18.806Z,0.00
2022-11-16T03:50:18.750Z,0.00
2022-11-16T03:51:18.738Z,0.00
2022-11-16T03:52:18.752Z,0.00
2022-11-16T03:53:18.748Z,0.00
2022-11-16T03:54:18.744Z,0.00
2022-11-16T03:55:18.702Z,0.00
2022-11-16T03:56:18.699Z,0.00
2022-11-16T03:57:18.721Z,0.00
2022-11-16T03:58:18.772Z,0.00
2022-11-16T03:59:18.697Z,0.00
2022-11-16T04:00:18.659Z,0.00
2022-11-16T04:01:18.697Z,0.00
2022-11-16T04:02:18.628Z,0.00
2022-11-16T04:03:18.650Z,0.00
2022-11-16T04:04:18.626Z,0.00
2022-11-16T04:05:18.591Z,0.00
2022-11-16T04:06:18.588Z,0.00
2022-11-16T04:07:18.648Z,0.00
2022-11-16T04:08:18.578Z,0.00
2022-11-16T04:09:18.578Z,0.00
2022-11-16T04:10:18.552Z,0.00
2022-11-16T04:11:18.522Z,0.00
2022-11-16T04:12:18.530Z,0.00
2022-11-16T04:13:18.503Z,0.00
2022-11-16T04:14:18.537Z,0.00
2022-11-16T04:15:18.492Z,0.00
2022-11-16T04:16:18.463Z,0.00
2022-11-16T04:17:18.457Z,0.00
2022-11-16T04:18:18.451Z,0.00
2022-11-16T04:19:18.458Z,0.00
2022-11-16T04:20:18.430Z,0.00
2022-11-16T04:21:18.421Z,0.00
2022-11-16T04:22:18.406Z,0.00
2022-11-16T04:23:18.413Z,0.00
2022-11-16T04:24:18.405Z,0.00
2022-11-16T04:25:18.371Z,0.00
2022-11-16T04:26:18.366Z,0.00
2022-11-16T04:27:18.353Z,0.00
2022-11-16T04:28:18.336Z,0.00
2022-11-16T04:29:18.345Z,0.00
2022-11-16T04:30:18.316Z,0.00
2022-11-16T04:31:18.300Z,0.00
2022-11-16T04:32:18.316Z,0.00
2022-11-16T04:33:18.294Z,0.00
2022-11-16T04:34:18.267Z,0.00
2022-11-16T04:35:18.264Z,0.00
2022-11-16T04:36:20.706Z,0.00
2022-11-16T04:37:18.216Z,0.00
2022-11-16T04:38:18.239Z,0.00
2022-11-16T04:39:18.211Z,0.00
2022-11-16T04:40:18.213Z,0.00
2022-11-16T04:41:18.176Z,0.00
2022-11-16T04:42:18.173Z,0.00
2022-11-16T04:43:18.183Z,0.00
2022-11-16T04:44:18.228Z,0.00
2022-11-16T04:45:18.129Z,0.00
2022-11-16T04:46:18.125Z,0.00
2022-11-16T04:47:18.119Z,0.00
2022-11-16T04:48:18.116Z,0.00
2022-11-16T04:49:18.126Z,0.00
2022-11-16T04:50:18.102Z,0.00
2022-11-16T04:51:18.058Z,0.00
2022-11-16T04:52:18.079Z,0.00
2022-11-16T04:53:18.038Z,0.00
2022-11-16T04:54:18.079Z,0.00
2022-11-16T04:55:18.047Z,0.00
2022-11-16T04:56:18.030Z,0.00
2022-11-16T04:57:17.997Z,0.00
2022-11-16T04:58:18.004Z,0.00
2022-11-16T04:59:18.029Z,0.00
2022-11-16T05:00:17.966Z,0.00
2022-11-16T05:01:18.009Z,0.00
2022-11-16T05:02:17.938Z,0.00
2022-11-16T05:03:17.950Z,0.00
2022-11-16T05:04:17.958Z,0.00
2022-11-16T05:05:17.942Z,0.00
2022-11-16T05:06:17.888Z,0.00
2022-11-16T05:07:17.928Z,0.00
2022-11-16T05:08:17.882Z,0.00
2022-11-16T05:09:17.878Z,0.00
2022-11-16T05:10:17.868Z,0.00
2022-11-16T05:11:17.842Z,0.00
2022-11-16T05:12:17.829Z,0.00
2022-11-16T05:13:17.852Z,0.00
2022-11-16T05:14:17.866Z,0.00
2022-11-16T05:15:18.038Z,0.00
2022-11-16T05:16:17.784Z,0.00
2022-11-16T05:17:17.780Z,0.00
2022-11-16T05:18:17.773Z,0.00
2022-11-16T05:19:17.780Z,0.00
2022-11-16T05:20:17.732Z,0.00
2022-11-16T05:21:17.742Z,0.00
2022-11-16T05:22:17.712Z,0.00
2022-11-16T05:23:17.725Z,0.00
2022-11-16T05:24:17.716Z,0.00
2022-11-16T05:25:17.683Z,0.00
2022-11-16T05:26:17.665Z,0.00
2022-11-16T05:27:17.661Z,0.00
2022-11-16T05:28:17.647Z,0.00
2022-11-16T05:29:17.638Z,0.00
2022-11-16T05:30:17.634Z,0.00
2022-11-16T05:31:17.626Z,0.00
2022-11-16T05:32:17.604Z,0.00
2022-11-16T05:33:17.615Z,0.00
2022-11-16T05:34:17.605Z,0.00
2022-11-16T05:35:17.612Z,0.00
2022-11-16T05:36:17.574Z,0.00
2022-11-16T05:37:17.798Z,0.00
2022-11-16T05:38:17.545Z,0.00
2022-11-16T05:39:17.551Z,0.00
2022-11-16T05:40:17.516Z,0.00
2022-11-16T05:41:17.498Z,0.00
2022-11-16T05:42:17.485Z,0.00
2022-11-16T05:43:17.486Z,0.00
2022-11-16T05:44:21.379Z,0.00
2022-11-16T05:45:21.014Z,0.00
2022-11-16T05:46:17.462Z,0.00
2022-11-16T05:47:17.434Z,0.00
2022-11-16T05:48:17.429Z,0.00
2022-11-16T05:49:17.395Z,0.00
2022-11-16T05:50:17.418Z,0.00
2022-11-16T05:51:17.375Z,0.00
2022-11-16T05:52:17.410Z,0.00
2022-11-16T05:53:17.372Z,0.00
2022-11-16T05:54:17.359Z,0.00
2022-11-16T05:55:17.392Z,0.00
2022-11-16T05:56:17.380Z,0.00
2022-11-16T05:57:17.297Z,0.00
2022-11-16T05:58:17.327Z,0.00
2022-11-16T05:59:17.298Z,0.00
2022-11-16T06:00:17.290Z,0.00
2022-11-16T06:01:17.344Z,0.00
2022-11-16T06:02:17.278Z,0.00
2022-11-16T06:03:17.278Z,0.00
2022-11-16T06:04:38.259Z,0.00
2022-11-16T06:05:17.288Z,0.00
2022-11-16T06:06:17.207Z,0.00
2022-11-16T06:07:17.274Z,0.00
2022-11-16T06:08:17.189Z,0.00
2022-11-16T06:09:17.194Z,0.00
2022-11-16T06:10:17.199Z,0.00
2022-11-16T06:11:17.152Z,0.00
2022-11-16T06:12:17.146Z,0.00
2022-11-16T06:13:17.166Z,0.00
2022-11-16T06:14:17.135Z,0.00
2022-11-16T06:15:18.864Z,0.00
2022-11-16T06:16:17.134Z,0.00
2022-11-16T06:17:17.070Z,0.00
2022-11-16T06:18:17.106Z,0.00
2022-11-16T06:19:17.070Z,4.00
2022-11-16T06:20:17.071Z,4.00
2022-11-16T06:21:17.036Z,4.00
2022-11-16T06:22:17.049Z,4.00
2022-11-16T06:23:17.019Z,8.00
2022-11-16T06:24:17.029Z,4.00
2022-11-16T06:25:17.009Z,8.00
2022-11-16T06:26:16.989Z,8.00
2022-11-16T06:27:16.960Z,8.00
2022-11-16T06:28:16.950Z,12.00
2022-11-16T06:29:16.939Z,12.00
2022-11-16T06:30:16.941Z,16.00
2022-11-16T06:31:16.910Z,24.00
2022-11-16T06:32:16.914Z,24.00
2022-11-16T06:33:16.901Z,28.00
2022-11-16T06:34:16.900Z,36.00
2022-11-16T06:35:16.874Z,36.00
2022-11-16T06:36:16.973Z,48.00
2022-11-16T06:37:16.852Z,56.00
2022-11-16T06:38:16.853Z,60.00
2022-11-16T06:39:16.852Z,68.00
2022-11-16T06:40:16.819Z,76.00
2022-11-16T06:41:16.816Z,88.00
2022-11-16T06:42:16.804Z,96.00
2022-11-16T06:43:16.783Z,112.00
2022-11-16T06:44:16.794Z,120.00
2022-11-16T06:45:16.761Z,136.00
2022-11-16T06:46:16.773Z,148.00
2022-11-16T06:47:16.777Z,164.00
2022-11-16T06:48:16.744Z,184.00
2022-11-16T06:49:16.723Z,204.00
2022-11-16T06:50:16.737Z,220.00
2022-11-16T06:51:16.685Z,244.00
2022-11-16T06:52:16.683Z,264.00
2022-11-16T06:53:16.694Z,288.00
2022-11-16T06:54:16.702Z,312.00
2022-11-16T06:55:16.656Z,336.00
2022-11-16T06:56:16.654Z,364.00
2022-11-16T06:57:16.620Z,392.00
2022-11-16T06:58:16.613Z,424.00
2022-11-16T06:59:16.653Z,456.00
2022-11-16T07:00:16.624Z,488.00
2022-11-16T07:01:16.635Z,524.00
2022-11-16T07:02:16.585Z,564.00
2022-11-16T07:03:16.564Z,600.00
2022-11-16T07:04:16.554Z,640.00
2022-11-16T07:05:16.564Z,672.00
2022-11-16T07:06:16.545Z,708.00
2022-11-16T07:07:16.588Z,740.00
2022-11-16T07:08:16.494Z,776.00
2022-11-16T07:09:16.485Z,808.00
2022-11-16T07:10:16.516Z,836.00
2022-11-16T07:11:16.464Z,864.00
2022-11-16T07:12:16.455Z,900.00
2022-11-16T07:13:16.465Z,932.00
2022-11-16T07:14:16.467Z,968.00
2022-11-16T07:15:16.473Z,1004.00
2022-11-16T07:16:16.407Z,1032.00
2022-11-16T07:17:16.424Z,1060.00
2022-11-16T07:18:16.381Z,1084.00
2022-11-16T07:19:16.388Z,1112.00
2022-11-16T07:20:16.368Z,1136.00
2022-11-16T07:21:16.366Z,1164.00
2022-11-16T07:22:16.380Z,1196.00
2022-11-16T07:23:16.346Z,1216.00
2022-11-16T07:24:16.349Z,1236.00
2022-11-16T07:25:16.319Z,1264.00
2022-11-16T07:26:16.317Z,1280.00
2022-11-16T07:27:16.308Z,1300.00
2022-11-16T07:28:16.268Z,1284.00
2022-11-16T07:29:16.289Z,1280.00
2022-11-16T07:30:16.260Z,1292.00
2022-11-16T07:31:16.247Z,1304.00
2022-11-16T07:32:16.258Z,1324.00
2022-11-16T07:33:16.234Z,1356.00
2022-11-16T07:34:16.227Z,1368.00
2022-11-16T07:35:16.198Z,1396.00
2022-11-16T07:36:16.198Z,1436.00
2022-11-16T07:37:16.200Z,1464.00
2022-11-16T07:38:18.193Z,1488.00
2022-11-16T07:39:16.148Z,1516.00
2022-11-16T07:40:16.149Z,1568.00
2022-11-16T07:41:16.149Z,1644.00
2022-11-16T07:42:16.128Z,1684.00
2022-11-16T07:43:16.099Z,1684.00
2022-11-16T07:44:16.162Z,1720.00
2022-11-16T07:45:16.189Z,1828.00
2022-11-16T07:47:17.088Z,1940.00
2022-11-16T07:48:16.075Z,1980.00
2022-11-16T07:49:16.101Z,2000.00
2022-11-16T07:50:16.083Z,2024.00
2022-11-16T07:51:16.109Z,2048.00
2022-11-16T07:52:16.091Z,2068.00
2022-11-16T07:53:16.099Z,2092.00
2022-11-16T07:54:15.988Z,2128.00
2022-11-16T07:55:15.970Z,2168.00
2022-11-16T07:56:15.988Z,2208.00
2022-11-16T07:57:15.980Z,2252.00
2022-11-16T07:58:15.957Z,2300.00
2022-11-16T07:59:15.970Z,2328.00
2022-11-16T08:00:15.921Z,2332.00
2022-11-16T08:01:15.979Z,2364.00
2022-11-16T08:02:15.950Z,2392.00
2022-11-16T08:03:19.237Z,2440.00
2022-11-16T08:04:16.871Z,2532.00
2022-11-16T08:05:15.919Z,2576.00
2022-11-16T08:06:15.959Z,2504.00
2022-11-16T08:07:15.921Z,2584.00
2022-11-16T08:08:15.845Z,2612.00
2022-11-16T08:09:15.859Z,2608.00
2022-11-16T08:10:15.881Z,2828.00
2022-11-16T08:11:15.850Z,2824.00
2022-11-16T08:12:15.781Z,2944.00
2022-11-16T08:13:15.796Z,2992.00
2022-11-16T08:14:15.767Z,2956.00
2022-11-16T08:15:15.774Z,2904.00
2022-11-16T08:16:15.851Z,2896.00
2022-11-16T08:17:15.744Z,2896.00
2022-11-16T08:18:15.744Z,2924.00
2022-11-16T08:19:15.758Z,2988.00
2022-11-16T08:20:15.693Z,3068.00
2022-11-16T08:21:15.722Z,3152.00
2022-11-16T08:22:15.693Z,3216.00
2022-11-16T08:23:15.673Z,3340.00
2022-11-16T08:24:15.644Z,3400.00
2022-11-16T08:25:15.640Z,3480.00
2022-11-16T08:26:15.786Z,3536.00
2022-11-16T08:27:15.614Z,3572.00
2022-11-16T08:28:15.713Z,3596.00
2022-11-16T08:29:15.614Z,3616.00
2022-11-16T08:30:15.583Z,3672.00
2022-11-16T08:31:15.592Z,3756.00
2022-11-16T08:32:15.557Z,3848.00
2022-11-16T08:33:15.564Z,3912.00
2022-11-16T08:34:15.557Z,3956.00
2022-11-16T08:35:15.530Z,4036.00
2022-11-16T08:36:15.626Z,4156.00
2022-11-16T08:37:15.494Z,4220.00
2022-11-16T08:38:15.503Z,4208.00
2022-11-16T08:39:15.507Z,4144.00
2022-11-16T08:40:15.491Z,4060.00
2022-11-16T08:41:15.465Z,4000.00
2022-11-16T08:42:15.445Z,3896.00
2022-11-16T08:43:15.465Z,3816.00
2022-11-16T08:44:15.437Z,3752.00
2022-11-16T08:45:15.419Z,3712.00
2022-11-16T08:46:15.537Z,3688.00
2022-11-16T08:47:15.384Z,3624.00
2022-11-16T08:48:15.394Z,3580.00
2022-11-16T08:49:15.375Z,3552.00
2022-11-16T08:50:15.634Z,3520.00
2022-11-16T08:51:18.486Z,3480.00
2022-11-16T08:52:15.333Z,3436.00
2022-11-16T08:53:15.351Z,3420.00
2022-11-16T08:54:15.306Z,3408.00
2022-11-16T08:55:15.306Z,3388.00
2022-11-16T08:56:15.302Z,3372.00
2022-11-16T08:57:15.337Z,3364.00
2022-11-16T08:58:15.271Z,3364.00
2022-11-16T08:59:15.337Z,3352.00
2022-11-16T09:00:15.262Z,3368.00
2022-11-16T09:01:15.270Z,3364.00
2022-11-16T09:02:15.322Z,3388.00
2022-11-16T09:03:15.208Z,3404.00
2022-11-16T09:04:15.187Z,3396.00
2022-11-16T09:05:15.224Z,3388.00
2022-11-16T09:06:15.218Z,3416.00
2022-11-16T09:07:15.253Z,3424.00
2022-11-16T09:08:15.148Z,3436.00
2022-11-16T09:09:15.209Z,3428.00
2022-11-16T09:10:15.117Z,3024.00
2022-11-16T09:11:15.129Z,3404.00
2022-11-16T09:12:15.098Z,3520.00
2022-11-16T09:13:15.104Z,3528.00
2022-11-16T09:14:15.090Z,3556.00
2022-11-16T09:15:15.078Z,3576.00
2022-11-16T09:16:15.049Z,3596.00
2022-11-16T09:17:23.235Z,2980.00
2022-11-16T09:18:15.048Z,3584.00
2022-11-16T09:19:15.447Z,3568.00
2022-11-16T09:20:15.011Z,3604.00
2022-11-16T09:21:15.051Z,3584.00
2022-11-16T09:22:15.008Z,3592.00
2022-11-16T09:23:27.718Z,3608.00
2022-11-16T09:24:15.292Z,3628.00
2022-11-16T09:25:14.951Z,3640.00
2022-11-16T09:26:14.991Z,3656.00
2022-11-16T09:27:14.967Z,3628.00
2022-11-16T09:28:17.461Z,3664.00
2022-11-16T09:29:14.951Z,3668.00
2022-11-16T09:30:14.880Z,3672.00
2022-11-16T09:31:20.289Z,3688.00
2022-11-16T09:32:15.871Z,3696.00
2022-11-16T09:33:14.874Z,3708.00
2022-11-16T09:34:14.871Z,3720.00
2022-11-16T09:35:14.821Z,3728.00
2022-11-16T09:36:15.092Z,3744.00
2022-11-16T09:37:14.812Z,3756.00
2022-11-16T09:38:20.716Z,3764.00
2022-11-16T09:39:31.970Z,3768.00
2022-11-16T09:40:15.803Z,3668.00
2022-11-16T09:41:14.772Z,3800.00
2022-11-16T09:42:14.773Z,3796.00
2022-11-16T09:43:14.754Z,3624.00
2022-11-16T09:44:14.818Z,3808.00
2022-11-16T09:45:14.725Z,3832.00
2022-11-16T09:46:14.715Z,3840.00
2022-11-16T09:47:14.725Z,3852.00
2022-11-16T09:48:14.709Z,3844.00
2022-11-16T09:49:17.618Z,3852.00
2022-11-16T09:50:14.683Z,3860.00
2022-11-16T09:51:14.693Z,3868.00
2022-11-16T09:52:14.663Z,3872.00
2022-11-16T09:53:14.626Z,3876.00
2022-11-16T09:54:14.613Z,3880.00
2022-11-16T09:55:16.202Z,3892.00
2022-11-16T09:56:20.655Z,3900.00
2022-11-16T09:57:15.586Z,3908.00
2022-11-16T09:58:14.574Z,3920.00
2022-11-16T09:59:18.144Z,3908.00
2022-11-16T10:00:14.717Z,3908.00
2022-11-16T10:01:14.567Z,3920.00
2022-11-16T10:02:14.616Z,3864.00
2022-11-16T10:03:14.505Z,3964.00
2022-11-16T10:04:14.516Z,3952.00
2022-11-16T10:05:14.527Z,3960.00
2022-11-16T10:06:14.475Z,3972.00
2022-11-16T10:07:14.532Z,3980.00
2022-11-16T10:08:14.463Z,3992.00
2022-11-16T10:09:14.559Z,3992.00
2022-11-16T10:10:16.376Z,3996.00
2022-11-16T10:11:14.448Z,4004.00
2022-11-16T10:12:14.439Z,4000.00
2022-11-16T10:13:14.418Z,4008.00
2022-11-16T10:14:18.332Z,4016.00
2022-11-16T10:15:14.386Z,4076.00
2022-11-16T10:16:14.378Z,4036.00
2022-11-16T10:17:14.385Z,4040.00
2022-11-16T10:18:14.675Z,4024.00
2022-11-16T10:19:14.385Z,4048.00
2022-11-16T10:20:14.326Z,4064.00
2022-11-16T10:21:14.348Z,4072.00
2022-11-16T10:22:14.366Z,4080.00
2022-11-16T10:23:14.316Z,4116.00
2022-11-16T10:24:19.065Z,4184.00
2022-11-16T10:25:14.325Z,3608.00
2022-11-16T10:26:14.322Z,4168.00
2022-11-16T10:27:20.762Z,4204.00
2022-11-16T10:28:16.081Z,3988.00
2022-11-16T10:29:14.260Z,4204.00
2022-11-16T10:30:14.213Z,3704.00
2022-11-16T10:31:14.221Z,4156.00
2022-11-16T10:32:14.196Z,3400.00
2022-11-16T10:33:14.212Z,3080.00
2022-11-16T10:34:14.171Z,3864.00
2022-11-16T10:35:14.157Z,4324.00
2022-11-16T10:36:14.152Z,4204.00
2022-11-16T10:37:14.174Z,4164.00
2022-11-16T10:38:14.156Z,4144.00
2022-11-16T10:39:14.121Z,4152.00
2022-11-16T10:40:14.144Z,4152.00
2022-11-16T10:41:14.082Z,4164.00
2022-11-16T10:42:14.074Z,4200.00
2022-11-16T10:43:14.081Z,4184.00
2022-11-16T10:44:14.074Z,4076.00
2022-11-16T10:45:14.052Z,4192.00
2022-11-16T10:46:14.041Z,4228.00
2022-11-16T10:47:14.059Z,4244.00
2022-11-16T10:48:14.135Z,4280.00
2022-11-16T10:49:13.996Z,4352.00
2022-11-16T10:50:14.013Z,4332.00
2022-11-16T10:51:13.982Z,4316.00
2022-11-16T10:52:13.973Z,4344.00
2022-11-16T10:53:13.995Z,4356.00
2022-11-16T10:54:13.933Z,4324.00
2022-11-16T10:55:13.941Z,4124.00
2022-11-16T10:56:13.935Z,4108.00
2022-11-16T10:57:13.975Z,4188.00
2022-11-16T10:58:14.003Z,4160.00
2022-11-16T10:59:13.925Z,4168.00
2022-11-16T11:00:17.128Z,4200.00
2022-11-16T11:01:14.945Z,4316.00
2022-11-16T11:02:13.902Z,4208.00
2022-11-16T11:03:13.853Z,4228.00
2022-11-16T11:04:13.842Z,4344.00
2022-11-16T11:05:13.824Z,4272.00
2022-11-16T11:06:13.826Z,4248.00
2022-11-16T11:07:13.903Z,4212.00
2022-11-16T11:08:13.865Z,4184.00
2022-11-16T11:09:13.796Z,4164.00
2022-11-16T11:10:13.790Z,4164.00
2022-11-16T11:11:13.755Z,4192.00
2022-11-16T11:12:13.745Z,4204.00
2022-11-16T11:13:13.816Z,4208.00
2022-11-16T11:14:13.783Z,4216.00
2022-11-16T11:15:13.725Z,4228.00
2022-11-16T11:16:13.716Z,4256.00
2022-11-16T11:17:14.667Z,4340.00
2022-11-16T11:18:13.756Z,4272.00
2022-11-16T11:19:13.694Z,4252.00
2022-11-16T11:20:13.694Z,4220.00
2022-11-16T11:21:13.636Z,4212.00
2022-11-16T11:22:13.637Z,4216.00
2022-11-16T11:23:13.638Z,4264.00
2022-11-16T11:24:42.892Z,4256.00
2022-11-16T11:25:14.607Z,4296.00
2022-11-16T11:26:13.607Z,4356.00
2022-11-16T11:27:13.591Z,4532.00
2022-11-16T11:28:13.629Z,3532.00
2022-11-16T11:29:13.607Z,4604.00
2022-11-16T11:30:13.587Z,4860.00
2022-11-16T11:31:13.537Z,4876.00
2022-11-16T11:32:18.024Z,5016.00
2022-11-16T11:33:14.524Z,5248.00
2022-11-16T11:34:13.619Z,5384.00
2022-11-16T11:35:13.793Z,5488.00
2022-11-16T11:36:13.509Z,5312.00
2022-11-16T11:37:13.520Z,5152.00
2022-11-16T11:38:13.459Z,4880.00
2022-11-16T11:39:13.560Z,4604.00
2022-11-16T11:40:13.439Z,4480.00
2022-11-16T11:41:13.467Z,4428.00
2022-11-16T11:42:13.438Z,4440.00
2022-11-16T11:43:18.667Z,4468.00
2022-11-16T11:44:14.411Z,4472.00
2022-11-16T11:45:13.416Z,4228.00
2022-11-16T11:46:13.381Z,4524.00
2022-11-16T11:48:14.349Z,4816.00
2022-11-16T11:49:13.368Z,4896.00
2022-11-16T11:50:13.324Z,5408.00
2022-11-16T11:51:13.338Z,5736.00
2022-11-16T11:52:13.306Z,6100.00
2022-11-16T11:53:13.367Z,6280.00
2022-11-16T11:54:13.291Z,5712.00
2022-11-16T11:55:13.272Z,4956.00
2022-11-16T11:56:13.261Z,4568.00
2022-11-16T11:57:13.365Z,4376.00
2022-11-16T11:58:13.252Z,4276.00
2022-11-16T11:59:13.252Z,4160.00
2022-11-16T12:00:13.305Z,4144.00
2022-11-16T12:01:13.211Z,4072.00
2022-11-16T12:02:13.204Z,4040.00
2022-11-16T12:03:14.170Z,4076.00
2022-11-16T12:04:13.218Z,4128.00
2022-11-16T12:05:13.154Z,4168.00
2022-11-16T12:06:13.151Z,4148.00
2022-11-16T12:07:13.177Z,4080.00
2022-11-16T12:08:13.133Z,4004.00
2022-11-16T12:09:13.133Z,3964.00
2022-11-16T12:10:13.133Z,3996.00
2022-11-16T12:11:13.092Z,3976.00
2022-11-16T12:12:14.786Z,4044.00
2022-11-16T12:13:13.082Z,3360.00
2022-11-16T12:14:13.271Z,3416.00
2022-11-16T12:15:13.060Z,3236.00
2022-11-16T12:16:13.058Z,3840.00
2022-11-16T12:17:13.036Z,3112.00
2022-11-16T12:18:13.034Z,3292.00
2022-11-16T12:19:13.064Z,3420.00
2022-11-16T12:20:13.029Z,3480.00
2022-11-16T12:21:12.982Z,3520.00
2022-11-16T12:22:12.986Z,3632.00
2022-11-16T12:23:12.967Z,3820.00
2022-11-16T12:24:12.963Z,3932.00
2022-11-16T12:25:12.955Z,3904.00
2022-11-16T12:26:12.951Z,3896.00
2022-11-16T12:27:12.920Z,4084.00
2022-11-16T12:28:12.935Z,4384.00
2022-11-16T12:29:12.905Z,4656.00
2022-11-16T12:30:12.954Z,4720.00
2022-11-16T12:31:12.879Z,4568.00
2022-11-16T12:32:12.866Z,4320.00
2022-11-16T12:33:12.876Z,4124.00
2022-11-16T12:34:12.839Z,4032.00
2022-11-16T12:35:12.872Z,4392.00
2022-11-16T12:36:12.815Z,3988.00
2022-11-16T12:37:12.824Z,3904.00
2022-11-16T12:38:12.814Z,3904.00
2022-11-16T12:39:12.815Z,3880.00
2022-11-16T12:40:12.877Z,3932.00
2022-11-16T12:41:12.760Z,4052.00
2022-11-16T12:42:12.761Z,4080.00
2022-11-16T12:43:12.759Z,3932.00
2022-11-16T12:44:12.728Z,4136.00